Beaver Creek Airport
CYXQ : now visible

Airfield :











YOU CAN JOIN US ON...

 
LOGIN :

Register | Disclaimer

   EN    FR    IT 

 









Legend :    VFR   Marginal VFR   IFR   Intensive IFR   Very Intensive IFR
Visi :
Ceiling :
>= 8 km
>= 3000ft
5 to 8 km
1000 to 3000 ft
1500m to 5 km
500 to 1000 ft
800 to 1500m
200 to 500 ft
< 800m
< 200 ft
Symbols :   Thunderstorms  Fog  Heavy snow  Heavy precipitations  Wind > 20 kt






- Airport Elevation : 2131 ft
- IATA code : YXQ


CYXQ - Beaver Creek

CURRENT METAR :
  • 102200Z 16002KT 20SM FEW009 SCT080 OVC150 M17/M19 A2962 RMK ST1AC2AC5 SLP093

EXPIRED METARs :
  • 102110Z 00000KT 7SM SCT009 BKN030 BKN080 OVC170 M17/M19 A2962 RMK ST3SC2AC1AC2 SLP095
  • 102104Z 00000KT 2 1/2SM BR OVC010 M17/M19 A2962 RMK FG5ST3 SLP094
  • 102000Z 00000KT 1 1/4SM BR VV003 M18/M21 A2961 RMK FG8 SLP096
  • 101952Z 00000KT 1 1/4SM BR VV003 M18/M21 A2961 RMK FG8 SLP097
  • 101928Z 07002KT 3/4SM BR VV003 M18/M21 A2961 RMK FG8 SLP095

TAF N/A



MET'MAP, your aeronautical weather chart ! - Copyright ORBIFLY December 2007 - Disclaimer

ORBIFLY MET'MAP TEAM :

Programming & Development : Alexandra Zaïnal
Concept & original design : Baudouin d'Aumeries
Assistance for programming : Marc-Olivier Méhu
Technical & hardware support : Manuel Goepfert

Contact : metmap@orbifly.com




SOURCES & CREDITS :

   NOAA       Earth
Advisory